Pleasant Ridge, Louisiana
Current Conditions -  °F | °C
As of 5:53 PM on Saturday 22 Nov 2014 (Local Time) from KESF Reporting Station
Broken Clouds Broken Clouds  
Wind Chill: 19°   Ceiling: 3300
Heat Index: 19°   Visibility: 10mi
Dew Point: 14°   Wind: 12mph
Humidity: 75%   Direction: 120°ESE
Pressure: 29.95"   Gusts: NA
Location:  31.8657°N, 92.2616°W
Report Text: KESF 222353Z AUTO 12010KT 10SM BKN033 BKN055 19/14 A2995 RMK AO2 SLP142 T01890144 10217 20189 58017
Loading
Personal Weather Stations






























Interactive Weather Map New forecast layout! Learn more

10-Day Weather Forecast

Advertisements
Track Severe Weather on mobile